Virtual LH

Virtual LH. There's no better way to fly
Since 2013.



AIRPORT MAP

METAR AND TAF INFORMATION

METAR FOR GOBD
ADDS - METARS form results

(1207 UTC 20 June 2019)
Data provider http://aviationweather.gov/metar/data/
 
METAR text: GOBD 201200Z 33014KT CAVOK 29/20 Q1014 NOSIG
Conditions at: GOBD (DAKAR/DIAGNE , SN) observed 1200 UTC 20 June 2019
Temperature: 29.0°C (84°F)
Dewpoint: 20.0°C (68°F) [RH = 58%]
Pressure (altimeter): 29.94 inches Hg (1014.0 mb)
Winds: from the NNW (330 degrees) at 16 MPH (14 knots; 7.2 m/s)
Visibility: 6 or more miles (10+ km)
Ceiling: ceiling and visibility are OK
Clouds: unknown
Weather: no significant weather observed at this time

METAR text: GOBD 201130Z 32012KT 290V350 CAVOK 27/20 Q1015 NOSIG
Conditions at: GOBD (DAKAR/DIAGNE , SN) observed 1130 UTC 20 June 2019
Temperature: 27.0°C (81°F)
Dewpoint: 20.0°C (68°F) [RH = 66%]
Pressure (altimeter): 29.97 inches Hg (1015.0 mb)
Winds: from the NW (320 degrees) at 14 MPH (12 knots; 6.2 m/s)
Visibility: 6 or more miles (10+ km)
Ceiling: ceiling and visibility are OK
Clouds: unknown
Weather: no significant weather observed at this time

Forecast for: GOBD (DAKAR/DIAGNE , SN)
Text: TAF GOBD 201130Z 2012/2118 29012KT CAVOK
Forecast period: 1200 UTC 20 June 2019 to 1800 UTC 21 June 2019
Forecast type: FROM: standard forecast or significant change
Winds: from the WNW (290 degrees) at 14 MPH (12 knots; 6.2 m/s)
Visibility: 6 or more miles 10+ km)
Ceiling: unknown
Clouds: missing
Weather: NSW  (no significant weather)

RUNWAY INFORMATION


AIRPORT FREQUENCIES


AIRPORT NEAR NAVIGATION AIDS